sensor_id;sensor_type;location;lat;lon;timestamp;P1;durP1;ratioP1;P2;durP2;ratioP2
62457;SDS011;48509;52.122;5.250;2024-02-26T00:00:54;5.8;;;3.9;;
62457;SDS011;48509;52.122;5.250;2024-02-26T00:02:31;4.61;;;3.8;;
62457;SDS011;48509;52.122;5.250;2024-02-26T00:05:44;7.5;;;3.8;;
62457;SDS011;48509;52.122;5.250;2024-02-26T00:07:21;5.5;;;3.8;;
62457;SDS011;48509;52.122;5.250;2024-02-26T00:08:57;8.5;;;4.3;;
62457;SDS011;48509;52.122;5.250;2024-02-26T00:10:34;4.91;;;4.0;;
62457;SDS011;48509;52.122;5.250;2024-02-26T00:13:49;5.0;;;3.7;;
62457;SDS011;48509;52.122;5.250;2024-02-26T00:15:25;6.1;;;4.0;;
62457;SDS011;48509;52.122;5.250;2024-02-26T00:17:01;6.3;;;3.6;;
62457;SDS011;48509;52.122;5.250;2024-02-26T00:20:15;5.6;;;3.7;;
62457;SDS011;48509;52.122;5.250;2024-02-26T00:21:51;7.7;;;3.6;;
62457;SDS011;48509;52.122;5.250;2024-02-26T00:23:27;5.4;;;4.2;;
62457;SDS011;48509;52.122;5.250;2024-02-26T00:26:41;4.91;;;4.0;;
62457;SDS011;48509;52.122;5.250;2024-02-26T00:28:18;5.8;;;4.0;;
62457;SDS011;48509;52.122;5.250;2024-02-26T00:29:56;6.1;;;4.1;;
62457;SDS011;48509;52.122;5.250;2024-02-26T00:31:32;4.61;;;4.1;;
62457;SDS011;48509;52.122;5.250;2024-02-26T00:34:46;7.1;;;4.41;;
62457;SDS011;48509;52.122;5.250;2024-02-26T00:36:22;5.5;;;4.41;;
62457;SDS011;48509;52.122;5.250;2024-02-26T00:37:58;4.7;;;4.3;;
62457;SDS011;48509;52.122;5.250;2024-02-26T00:41:11;6.0;;;4.2;;
62457;SDS011;48509;52.122;5.250;2024-02-26T00:42:47;6.1;;;4.3;;
62457;SDS011;48509;52.122;5.250;2024-02-26T00:44:23;6.5;;;4.8;;
62457;SDS011;48509;52.122;5.250;2024-02-26T00:47:36;6.3;;;4.61;;
62457;SDS011;48509;52.122;5.250;2024-02-26T00:49:12;6.1;;;4.61;;
62457;SDS011;48509;52.122;5.250;2024-02-26T00:50:48;6.6;;;4.5;;
62457;SDS011;48509;52.122;5.250;2024-02-26T00:52:25;7.8;;;4.7;;
62457;SDS011;48509;52.122;5.250;2024-02-26T00:55:38;5.4;;;4.7;;
62457;SDS011;48509;52.122;5.250;2024-02-26T00:57:14;10.5;;;4.7;;
62457;SDS011;48509;52.122;5.250;2024-02-26T00:58:50;6.6;;;5.11;;
62457;SDS011;48509;52.122;5.250;2024-02-26T01:02:02;6.2;;;4.7;;
62457;SDS011;48509;52.122;5.250;2024-02-26T01:03:38;6.3;;;5.2;;
62457;SDS011;48509;52.122;5.250;2024-02-26T01:05:14;6.4;;;4.91;;
62457;SDS011;48509;52.122;5.250;2024-02-26T01:08:26;5.9;;;4.91;;
62457;SDS011;48509;52.122;5.250;2024-02-26T01:10:08;7.1;;;5.2;;
62457;SDS011;48509;52.122;5.250;2024-02-26T01:11:45;8.5;;;5.3;;
62457;SDS011;48509;52.122;5.250;2024-02-26T01:13:21;6.6;;;4.8;;
62457;SDS011;48509;52.122;5.250;2024-02-26T01:16:33;5.4;;;4.8;;
62457;SDS011;48509;52.122;5.250;2024-02-26T01:18:09;5.8;;;5.2;;
62457;SDS011;48509;52.122;5.250;2024-02-26T01:19:46;8.31;;;5.6;;
62457;SDS011;48509;52.122;5.250;2024-02-26T01:23:00;7.8;;;5.2;;
62457;SDS011;48509;52.122;5.250;2024-02-26T01:24:37;7.4;;;5.8;;
62457;SDS011;48509;52.122;5.250;2024-02-26T01:26:13;6.7;;;5.7;;
62457;SDS011;48509;52.122;5.250;2024-02-26T01:29:26;7.3;;;5.9;;
62457;SDS011;48509;52.122;5.250;2024-02-26T01:31:02;6.6;;;5.9;;
62457;SDS011;48509;52.122;5.250;2024-02-26T01:32:39;6.8;;;5.4;;
62457;SDS011;48509;52.122;5.250;2024-02-26T01:34:15;6.8;;;5.9;;
62457;SDS011;48509;52.122;5.250;2024-02-26T01:37:28;7.2;;;5.9;;
62457;SDS011;48509;52.122;5.250;2024-02-26T01:39:04;6.6;;;5.5;;
62457;SDS011;48509;52.122;5.250;2024-02-26T01:40:41;6.6;;;5.9;;
62457;SDS011;48509;52.122;5.250;2024-02-26T01:43:56;6.6;;;5.9;;
62457;SDS011;48509;52.122;5.250;2024-02-26T01:45:32;7.4;;;6.2;;
62457;SDS011;48509;52.122;5.250;2024-02-26T01:47:09;7.0;;;5.9;;
62457;SDS011;48509;52.122;5.250;2024-02-26T01:50:24;7.9;;;6.1;;
62457;SDS011;48509;52.122;5.250;2024-02-26T01:52:01;6.6;;;5.9;;
62457;SDS011;48509;52.122;5.250;2024-02-26T01:53:39;6.0;;;5.4;;
62457;SDS011;48509;52.122;5.250;2024-02-26T01:55:17;6.9;;;6.2;;
62457;SDS011;48509;52.122;5.250;2024-02-26T01:58:31;8.31;;;6.4;;
62457;SDS011;48509;52.122;5.250;2024-02-26T02:00:09;7.0;;;6.2;;
62457;SDS011;48509;52.122;5.250;2024-02-26T02:01:47;6.7;;;5.9;;
62457;SDS011;48509;52.122;5.250;2024-02-26T02:03:31;10.7;;;6.4;;
62457;SDS011;48509;52.122;5.250;2024-02-26T02:06:45;7.5;;;6.4;;
62457;SDS011;48509;52.122;5.250;2024-02-26T02:08:21;7.1;;;6.3;;
62457;SDS011;48509;52.122;5.250;2024-02-26T02:09:59;8.6;;;6.3;;
62457;SDS011;48509;52.122;5.250;2024-02-26T02:13:13;7.1;;;6.0;;
62457;SDS011;48509;52.122;5.250;2024-02-26T02:14:49;6.6;;;5.9;;
62457;SDS011;48509;52.122;5.250;2024-02-26T02:16:25;8.9;;;6.2;;
62457;SDS011;48509;52.122;5.250;2024-02-26T02:19:37;8.0;;;6.8;;
62457;SDS011;48509;52.122;5.250;2024-02-26T02:21:13;10.4;;;6.7;;
62457;SDS011;48509;52.122;5.250;2024-02-26T02:22:49;7.9;;;6.6;;
62457;SDS011;48509;52.122;5.250;2024-02-26T02:24:25;8.5;;;7.0;;
62457;SDS011;48509;52.122;5.250;2024-02-26T02:27:39;7.7;;;6.8;;
62457;SDS011;48509;52.122;5.250;2024-02-26T02:30:52;8.6;;;6.9;;
62457;SDS011;48509;52.122;5.250;2024-02-26T02:34:06;7.9;;;6.5;;
62457;SDS011;48509;52.122;5.250;2024-02-26T02:35:44;11.1;;;8.2;;
62457;SDS011;48509;52.122;5.250;2024-02-26T02:37:20;10.0;;;7.9;;
62457;SDS011;48509;52.122;5.250;2024-02-26T02:40:33;9.4;;;7.7;;
62457;SDS011;48509;52.122;5.250;2024-02-26T02:42:11;8.1;;;7.3;;
62457;SDS011;48509;52.122;5.250;2024-02-26T02:43:47;9.9;;;8.5;;
62457;SDS011;48509;52.122;5.250;2024-02-26T02:45:23;11.4;;;8.5;;
62457;SDS011;48509;52.122;5.250;2024-02-26T02:48:35;12.0;;;8.4;;
62457;SDS011;48509;52.122;5.250;2024-02-26T02:50:11;10.8;;;8.5;;
62457;SDS011;48509;52.122;5.250;2024-02-26T02:51:51;10.7;;;8.71;;
62457;SDS011;48509;52.122;5.250;2024-02-26T02:55:04;13.6;;;8.9;;
62457;SDS011;48509;52.122;5.250;2024-02-26T02:56:41;10.21;;;8.6;;
62457;SDS011;48509;52.122;5.250;2024-02-26T02:58:17;9.6;;;8.6;;
62457;SDS011;48509;52.122;5.250;2024-02-26T03:01:30;10.5;;;8.2;;
62457;SDS011;48509;52.122;5.250;2024-02-26T03:03:06;13.3;;;8.31;;
62457;SDS011;48509;52.122;5.250;2024-02-26T03:04:42;10.4;;;8.4;;
62457;SDS011;48509;52.122;5.250;2024-02-26T03:06:18;10.21;;;8.0;;
62457;SDS011;48509;52.122;5.250;2024-02-26T03:09:30;10.0;;;8.4;;
62457;SDS011;48509;52.122;5.250;2024-02-26T03:11:06;10.21;;;8.4;;
62457;SDS011;48509;52.122;5.250;2024-02-26T03:12:42;11.9;;;8.6;;
62457;SDS011;48509;52.122;5.250;2024-02-26T03:15:54;11.0;;;8.4;;
62457;SDS011;48509;52.122;5.250;2024-02-26T03:17:31;9.5;;;8.5;;
62457;SDS011;48509;52.122;5.250;2024-02-26T03:19:07;10.5;;;8.81;;
62457;SDS011;48509;52.122;5.250;2024-02-26T03:22:19;10.5;;;8.81;;
62457;SDS011;48509;52.122;5.250;2024-02-26T03:23:55;11.1;;;9.21;;
62457;SDS011;48509;52.122;5.250;2024-02-26T03:25:31;11.6;;;10.1;;
62457;SDS011;48509;52.122;5.250;2024-02-26T03:28:44;10.7;;;9.6;;
62457;SDS011;48509;52.122;5.250;2024-02-26T03:30:20;10.0;;;8.9;;
62457;SDS011;48509;52.122;5.250;2024-02-26T03:31:57;9.81;;;8.81;;
62457;SDS011;48509;52.122;5.250;2024-02-26T03:33:34;12.4;;;10.0;;
62457;SDS011;48509;52.122;5.250;2024-02-26T03:36:47;11.4;;;8.9;;
62457;SDS011;48509;52.122;5.250;2024-02-26T03:38:23;11.4;;;8.71;;
62457;SDS011;48509;52.122;5.250;2024-02-26T03:40:00;11.9;;;9.4;;
62457;SDS011;48509;52.122;5.250;2024-02-26T03:43:12;11.9;;;9.31;;
62457;SDS011;48509;52.122;5.250;2024-02-26T03:44:48;11.2;;;8.9;;
62457;SDS011;48509;52.122;5.250;2024-02-26T03:46:24;11.8;;;9.6;;
62457;SDS011;48509;52.122;5.250;2024-02-26T03:49:37;11.0;;;9.21;;
62457;SDS011;48509;52.122;5.250;2024-02-26T03:51:14;12.6;;;9.4;;
62457;SDS011;48509;52.122;5.250;2024-02-26T03:52:51;12.1;;;9.6;;
62457;SDS011;48509;52.122;5.250;2024-02-26T03:54:28;11.0;;;9.81;;
62457;SDS011;48509;52.122;5.250;2024-02-26T03:57:42;13.3;;;10.21;;
62457;SDS011;48509;52.122;5.250;2024-02-26T03:59:19;12.4;;;10.21;;
62457;SDS011;48509;52.122;5.250;2024-02-26T04:00:55;11.7;;;10.0;;
62457;SDS011;48509;52.122;5.250;2024-02-26T04:04:07;10.9;;;9.71;;
62457;SDS011;48509;52.122;5.250;2024-02-26T04:05:43;12.5;;;10.4;;
62457;SDS011;48509;52.122;5.250;2024-02-26T04:07:21;12.8;;;11.4;;
62457;SDS011;48509;52.122;5.250;2024-02-26T04:10:33;11.6;;;10.21;;
62457;SDS011;48509;52.122;5.250;2024-02-26T04:12:09;12.9;;;10.21;;
62457;SDS011;48509;52.122;5.250;2024-02-26T04:13:45;13.6;;;10.9;;
62457;SDS011;48509;52.122;5.250;2024-02-26T04:15:22;12.6;;;10.3;;
62457;SDS011;48509;52.122;5.250;2024-02-26T04:18:34;13.7;;;10.1;;
62457;SDS011;48509;52.122;5.250;2024-02-26T04:20:13;11.4;;;10.21;;
62457;SDS011;48509;52.122;5.250;2024-02-26T04:21:51;13.5;;;11.1;;
62457;SDS011;48509;52.122;5.250;2024-02-26T04:25:04;11.5;;;10.21;;
62457;SDS011;48509;52.122;5.250;2024-02-26T04:26:41;14.3;;;11.1;;
62457;SDS011;48509;52.122;5.250;2024-02-26T04:28:17;14.3;;;10.9;;
62457;SDS011;48509;52.122;5.250;2024-02-26T04:31:29;13.2;;;10.6;;
62457;SDS011;48509;52.122;5.250;2024-02-26T04:33:06;12.9;;;9.81;;
62457;SDS011;48509;52.122;5.250;2024-02-26T04:34:42;11.4;;;9.81;;
62457;SDS011;48509;52.122;5.250;2024-02-26T04:36:18;13.4;;;10.4;;
62457;SDS011;48509;52.122;5.250;2024-02-26T04:39:31;15.3;;;11.5;;
62457;SDS011;48509;52.122;5.250;2024-02-26T04:41:08;12.9;;;10.7;;
62457;SDS011;48509;52.122;5.250;2024-02-26T04:42:45;12.5;;;11.2;;
62457;SDS011;48509;52.122;5.250;2024-02-26T04:45:59;12.1;;;10.8;;
62457;SDS011;48509;52.122;5.250;2024-02-26T04:47:35;13.1;;;11.4;;
62457;SDS011;48509;52.122;5.250;2024-02-26T04:49:11;14.9;;;12.2;;
62457;SDS011;48509;52.122;5.250;2024-02-26T04:52:23;13.2;;;11.5;;
62457;SDS011;48509;52.122;5.250;2024-02-26T04:53:59;17.2;;;12.8;;
62457;SDS011;48509;52.122;5.250;2024-02-26T04:55:36;18.0;;;12.6;;
62457;SDS011;48509;52.122;5.250;2024-02-26T04:57:12;15.2;;;12.8;;
62457;SDS011;48509;52.122;5.250;2024-02-26T05:00:25;18.41;;;12.9;;
62457;SDS011;48509;52.122;5.250;2024-02-26T05:02:02;18.11;;;15.1;;
62457;SDS011;48509;52.122;5.250;2024-02-26T05:03:39;16.61;;;14.0;;
62457;SDS011;48509;52.122;5.250;2024-02-26T05:06:52;17.5;;;14.6;;
62457;SDS011;48509;52.122;5.250;2024-02-26T05:08:31;18.2;;;13.9;;
62457;SDS011;48509;52.122;5.250;2024-02-26T05:10:07;20.11;;;15.1;;
62457;SDS011;48509;52.122;5.250;2024-02-26T05:11:44;18.91;;;14.6;;
62457;SDS011;48509;52.122;5.250;2024-02-26T05:14:58;17.91;;;14.4;;
62457;SDS011;48509;52.122;5.250;2024-02-26T05:16:35;17.3;;;14.4;;
62457;SDS011;48509;52.122;5.250;2024-02-26T05:18:11;17.5;;;14.2;;
62457;SDS011;48509;52.122;5.250;2024-02-26T05:21:23;17.7;;;13.9;;
62457;SDS011;48509;52.122;5.250;2024-02-26T05:22:59;17.8;;;14.4;;
62457;SDS011;48509;52.122;5.250;2024-02-26T05:24:37;17.91;;;14.2;;
62457;SDS011;48509;52.122;5.250;2024-02-26T05:27:55;17.91;;;14.6;;
62457;SDS011;48509;52.122;5.250;2024-02-26T05:29:32;21.3;;;14.3;;
62457;SDS011;48509;52.122;5.250;2024-02-26T05:31:08;21.3;;;14.3;;
62457;SDS011;48509;52.122;5.250;2024-02-26T05:32:48;18.5;;;14.6;;
62457;SDS011;48509;52.122;5.250;2024-02-26T05:36:00;19.8;;;14.3;;
62457;SDS011;48509;52.122;5.250;2024-02-26T05:37:37;17.7;;;14.5;;
62457;SDS011;48509;52.122;5.250;2024-02-26T05:39:14;19.11;;;14.8;;
62457;SDS011;48509;52.122;5.250;2024-02-26T05:42:26;19.5;;;15.3;;
62457;SDS011;48509;52.122;5.250;2024-02-26T05:44:02;18.7;;;14.5;;
62457;SDS011;48509;52.122;5.250;2024-02-26T05:45:39;18.91;;;15.5;;
62457;SDS011;48509;52.122;5.250;2024-02-26T05:48:53;19.8;;;15.8;;
62457;SDS011;48509;52.122;5.250;2024-02-26T05:50:30;18.61;;;15.1;;
62457;SDS011;48509;52.122;5.250;2024-02-26T05:52:07;18.5;;;15.0;;
62457;SDS011;48509;52.122;5.250;2024-02-26T05:53:44;19.61;;;15.3;;
62457;SDS011;48509;52.122;5.250;2024-02-26T05:56:58;19.5;;;15.4;;
62457;SDS011;48509;52.122;5.250;2024-02-26T05:58:34;20.11;;;15.7;;
62457;SDS011;48509;52.122;5.250;2024-02-26T06:00:12;18.8;;;15.7;;
62457;SDS011;48509;52.122;5.250;2024-02-26T06:03:25;22.9;;;16.2;;
62457;SDS011;48509;52.122;5.250;2024-02-26T06:05:01;19.11;;;15.4;;
62457;SDS011;48509;52.122;5.250;2024-02-26T06:06:38;18.2;;;15.5;;
62457;SDS011;48509;52.122;5.250;2024-02-26T06:08:15;19.91;;;15.5;;
62457;SDS011;48509;52.122;5.250;2024-02-26T06:11:30;19.7;;;16.5;;
62457;SDS011;48509;52.122;5.250;2024-02-26T06:13:08;21.0;;;16.4;;
62457;SDS011;48509;52.122;5.250;2024-02-26T06:14:45;20.0;;;16.3;;
62457;SDS011;48509;52.122;5.250;2024-02-26T06:17:58;21.9;;;16.61;;
62457;SDS011;48509;52.122;5.250;2024-02-26T06:19:35;20.9;;;16.61;;
62457;SDS011;48509;52.122;5.250;2024-02-26T06:21:12;21.6;;;16.5;;
62457;SDS011;48509;52.122;5.250;2024-02-26T06:24:27;23.1;;;17.8;;
62457;SDS011;48509;52.122;5.250;2024-02-26T06:26:04;22.3;;;17.41;;
62457;SDS011;48509;52.122;5.250;2024-02-26T06:27:41;23.4;;;18.41;;
62457;SDS011;48509;52.122;5.250;2024-02-26T06:29:18;24.8;;;17.91;;
62457;SDS011;48509;52.122;5.250;2024-02-26T06:32:32;25.0;;;18.41;;
62457;SDS011;48509;52.122;5.250;2024-02-26T06:34:09;31.9;;;19.41;;
62457;SDS011;48509;52.122;5.250;2024-02-26T06:35:46;25.0;;;19.2;;
62457;SDS011;48509;52.122;5.250;2024-02-26T06:39:00;26.3;;;20.11;;
62457;SDS011;48509;52.122;5.250;2024-02-26T06:40:37;23.9;;;19.3;;
62457;SDS011;48509;52.122;5.250;2024-02-26T06:42:14;27.2;;;19.7;;
62457;SDS011;48509;52.122;5.250;2024-02-26T06:43:50;29.9;;;21.2;;
62457;SDS011;48509;52.122;5.250;2024-02-26T06:47:04;29.3;;;22.0;;
62457;SDS011;48509;52.122;5.250;2024-02-26T06:48:40;30.6;;;22.3;;
62457;SDS011;48509;52.122;5.250;2024-02-26T06:50:17;33.71;;;23.1;;
62457;SDS011;48509;52.122;5.250;2024-02-26T06:53:31;30.6;;;23.3;;
62457;SDS011;48509;52.122;5.250;2024-02-26T06:55:08;34.9;;;23.9;;
62457;SDS011;48509;52.122;5.250;2024-02-26T06:56:45;34.5;;;24.5;;
62457;SDS011;48509;52.122;5.250;2024-02-26T06:59:58;34.71;;;24.3;;
62457;SDS011;48509;52.122;5.250;2024-02-26T07:01:35;37.4;;;25.8;;
62457;SDS011;48509;52.122;5.250;2024-02-26T07:03:12;37.81;;;26.2;;
62457;SDS011;48509;52.122;5.250;2024-02-26T07:04:49;41.8;;;27.2;;
62457;SDS011;48509;52.122;5.250;2024-02-26T07:08:04;36.6;;;27.3;;
62457;SDS011;48509;52.122;5.250;2024-02-26T07:09:42;39.31;;;27.9;;
62457;SDS011;48509;52.122;5.250;2024-02-26T07:11:18;41.5;;;28.9;;
62457;SDS011;48509;52.122;5.250;2024-02-26T07:14:32;40.21;;;30.0;;
62457;SDS011;48509;52.122;5.250;2024-02-26T07:16:09;44.0;;;30.3;;
62457;SDS011;48509;52.122;5.250;2024-02-26T07:17:57;45.8;;;32.0;;
62457;SDS011;48509;52.122;5.250;2024-02-26T07:19:34;44.3;;;31.5;;
62457;SDS011;48509;52.122;5.250;2024-02-26T07:22:47;44.5;;;32.9;;
62457;SDS011;48509;52.122;5.250;2024-02-26T07:24:24;46.1;;;32.6;;
62457;SDS011;48509;52.122;5.250;2024-02-26T07:26:01;51.1;;;34.81;;
62457;SDS011;48509;52.122;5.250;2024-02-26T07:29:18;45.9;;;33.9;;
62457;SDS011;48509;52.122;5.250;2024-02-26T07:30:55;46.7;;;33.8;;
62457;SDS011;48509;52.122;5.250;2024-02-26T07:32:32;48.4;;;34.81;;
62457;SDS011;48509;52.122;5.250;2024-02-26T07:34:09;45.7;;;33.5;;
62457;SDS011;48509;52.122;5.250;2024-02-26T07:37:24;46.1;;;34.4;;
62457;SDS011;48509;52.122;5.250;2024-02-26T07:39:01;51.1;;;35.0;;
62457;SDS011;48509;52.122;5.250;2024-02-26T07:40:38;46.3;;;33.9;;
62457;SDS011;48509;52.122;5.250;2024-02-26T07:43:51;46.5;;;34.1;;
62457;SDS011;48509;52.122;5.250;2024-02-26T07:45:28;47.7;;;35.1;;
62457;SDS011;48509;52.122;5.250;2024-02-26T07:47:04;44.6;;;35.0;;
62457;SDS011;48509;52.122;5.250;2024-02-26T07:48:41;44.6;;;32.8;;
62457;SDS011;48509;52.122;5.250;2024-02-26T07:51:54;43.4;;;33.3;;
62457;SDS011;48509;52.122;5.250;2024-02-26T07:53:31;44.9;;;33.6;;
62457;SDS011;48509;52.122;5.250;2024-02-26T07:55:08;41.8;;;31.8;;
62457;SDS011;48509;52.122;5.250;2024-02-26T07:58:22;44.2;;;31.6;;
62457;SDS011;48509;52.122;5.250;2024-02-26T07:59:59;39.9;;;30.4;;
62457;SDS011;48509;52.122;5.250;2024-02-26T08:01:37;43.9;;;33.3;;
62457;SDS011;48509;52.122;5.250;2024-02-26T08:04:50;38.21;;;29.2;;
62457;SDS011;48509;52.122;5.250;2024-02-26T08:06:26;37.0;;;29.3;;
62457;SDS011;48509;52.122;5.250;2024-02-26T08:08:03;36.31;;;27.9;;
62457;SDS011;48509;52.122;5.250;2024-02-26T08:09:40;35.1;;;27.3;;
62457;SDS011;48509;52.122;5.250;2024-02-26T08:12:54;33.6;;;25.1;;
62457;SDS011;48509;52.122;5.250;2024-02-26T08:14:30;31.0;;;24.4;;
62457;SDS011;48509;52.122;5.250;2024-02-26T08:16:08;28.7;;;21.6;;
62457;SDS011;48509;52.122;5.250;2024-02-26T08:19:22;27.7;;;22.5;;
62457;SDS011;48509;52.122;5.250;2024-02-26T08:20:59;26.8;;;21.5;;
62457;SDS011;48509;52.122;5.250;2024-02-26T08:22:36;29.7;;;22.7;;
62457;SDS011;48509;52.122;5.250;2024-02-26T08:24:13;25.4;;;20.3;;
62457;SDS011;48509;52.122;5.250;2024-02-26T08:27:28;25.0;;;20.5;;
62457;SDS011;48509;52.122;5.250;2024-02-26T08:29:04;25.7;;;19.8;;
62457;SDS011;48509;52.122;5.250;2024-02-26T08:30:41;23.7;;;18.91;;
62457;SDS011;48509;52.122;5.250;2024-02-26T08:33:54;23.1;;;18.2;;
62457;SDS011;48509;52.122;5.250;2024-02-26T08:35:31;23.7;;;18.0;;
62457;SDS011;48509;52.122;5.250;2024-02-26T08:37:07;22.0;;;17.5;;
62457;SDS011;48509;52.122;5.250;2024-02-26T08:40:21;19.7;;;16.0;;
62457;SDS011;48509;52.122;5.250;2024-02-26T08:41:58;20.3;;;16.61;;
62457;SDS011;48509;52.122;5.250;2024-02-26T08:43:35;20.0;;;15.3;;
62457;SDS011;48509;52.122;5.250;2024-02-26T08:45:11;20.11;;;15.8;;
62457;SDS011;48509;52.122;5.250;2024-02-26T08:48:24;19.3;;;15.1;;
62457;SDS011;48509;52.122;5.250;2024-02-26T08:50:02;17.7;;;15.3;;
62457;SDS011;48509;52.122;5.250;2024-02-26T08:51:41;18.61;;;14.4;;
62457;SDS011;48509;52.122;5.250;2024-02-26T08:54:55;18.41;;;15.2;;
62457;SDS011;48509;52.122;5.250;2024-02-26T08:56:32;18.41;;;15.5;;
62457;SDS011;48509;52.122;5.250;2024-02-26T08:58:09;21.3;;;15.3;;
62457;SDS011;48509;52.122;5.250;2024-02-26T08:59:46;20.41;;;14.8;;
62457;SDS011;48509;52.122;5.250;2024-02-26T09:03:00;20.0;;;14.3;;
62457;SDS011;48509;52.122;5.250;2024-02-26T09:04:36;17.61;;;13.8;;
62457;SDS011;48509;52.122;5.250;2024-02-26T09:06:14;17.41;;;13.6;;
62457;SDS011;48509;52.122;5.250;2024-02-26T09:09:28;15.0;;;13.3;;
62457;SDS011;48509;52.122;5.250;2024-02-26T09:11:04;16.5;;;13.2;;
62457;SDS011;48509;52.122;5.250;2024-02-26T09:12:40;15.4;;;12.6;;
62457;SDS011;48509;52.122;5.250;2024-02-26T09:15:55;16.11;;;12.5;;
62457;SDS011;48509;52.122;5.250;2024-02-26T09:17:32;15.9;;;12.2;;
62457;SDS011;48509;52.122;5.250;2024-02-26T09:19:09;15.2;;;12.2;;
62457;SDS011;48509;52.122;5.250;2024-02-26T09:20:46;15.4;;;12.1;;
62457;SDS011;48509;52.122;5.250;2024-02-26T09:24:00;14.9;;;11.9;;
62457;SDS011;48509;52.122;5.250;2024-02-26T09:25:37;14.3;;;11.4;;
62457;SDS011;48509;52.122;5.250;2024-02-26T09:27:15;17.11;;;12.4;;
62457;SDS011;48509;52.122;5.250;2024-02-26T09:30:29;14.6;;;11.4;;
62457;SDS011;48509;52.122;5.250;2024-02-26T09:32:06;14.1;;;10.7;;
62457;SDS011;48509;52.122;5.250;2024-02-26T09:33:43;20.3;;;11.2;;
62457;SDS011;48509;52.122;5.250;2024-02-26T09:38:34;12.0;;;10.7;;
62457;SDS011;48509;52.122;5.250;2024-02-26T09:40:12;14.3;;;11.5;;
62457;SDS011;48509;52.122;5.250;2024-02-26T09:41:48;14.3;;;11.5;;
62457;SDS011;48509;52.122;5.250;2024-02-26T09:45:10;13.9;;;10.8;;
62457;SDS011;48509;52.122;5.250;2024-02-26T09:46:52;14.6;;;10.9;;
62457;SDS011;48509;52.122;5.250;2024-02-26T09:48:29;14.6;;;10.9;;
62457;SDS011;48509;52.122;5.250;2024-02-26T09:50:08;12.8;;;10.4;;
62457;SDS011;48509;52.122;5.250;2024-02-26T09:53:25;11.0;;;9.81;;
62457;SDS011;48509;52.122;5.250;2024-02-26T09:55:04;12.9;;;10.21;;
62457;SDS011;48509;52.122;5.250;2024-02-26T09:56:44;13.4;;;10.5;;
62457;SDS011;48509;52.122;5.250;2024-02-26T09:58:26;11.7;;;10.0;;
62457;SDS011;48509;52.122;5.250;2024-02-26T10:01:50;17.2;;;10.6;;
62457;SDS011;48509;52.122;5.250;2024-02-26T10:03:30;13.5;;;10.21;;
62457;SDS011;48509;52.122;5.250;2024-02-26T10:05:14;14.0;;;10.6;;
62457;SDS011;48509;52.122;5.250;2024-02-26T10:06:53;14.1;;;10.1;;
62457;SDS011;48509;52.122;5.250;2024-02-26T10:10:08;13.1;;;10.3;;
62457;SDS011;48509;52.122;5.250;2024-02-26T10:11:45;14.0;;;9.9;;
62457;SDS011;48509;52.122;5.250;2024-02-26T10:13:24;11.3;;;10.1;;
62457;SDS011;48509;52.122;5.250;2024-02-26T10:16:38;13.1;;;10.6;;
62457;SDS011;48509;52.122;5.250;2024-02-26T10:18:15;12.1;;;10.1;;
62457;SDS011;48509;52.122;5.250;2024-02-26T10:19:52;13.2;;;10.5;;
62457;SDS011;48509;52.122;5.250;2024-02-26T10:21:29;14.5;;;10.9;;
62457;SDS011;48509;52.122;5.250;2024-02-26T10:24:43;13.1;;;10.8;;
62457;SDS011;48509;52.122;5.250;2024-02-26T10:26:22;14.2;;;11.0;;
62457;SDS011;48509;52.122;5.250;2024-02-26T10:28:00;13.4;;;10.6;;
62457;SDS011;48509;52.122;5.250;2024-02-26T10:31:15;13.7;;;10.6;;
62457;SDS011;48509;52.122;5.250;2024-02-26T10:32:52;14.1;;;10.8;;
62457;SDS011;48509;52.122;5.250;2024-02-26T10:34:29;14.4;;;10.8;;
62457;SDS011;48509;52.122;5.250;2024-02-26T10:36:07;13.3;;;10.4;;
62457;SDS011;48509;52.122;5.250;2024-02-26T10:39:25;11.7;;;10.0;;
62457;SDS011;48509;52.122;5.250;2024-02-26T10:41:01;11.7;;;10.1;;
62457;SDS011;48509;52.122;5.250;2024-02-26T10:42:38;12.8;;;10.1;;
62457;SDS011;48509;52.122;5.250;2024-02-26T10:45:54;11.5;;;10.21;;
62457;SDS011;48509;52.122;5.250;2024-02-26T10:47:31;11.9;;;10.0;;
62457;SDS011;48509;52.122;5.250;2024-02-26T10:49:12;13.3;;;9.81;;
62457;SDS011;48509;52.122;5.250;2024-02-26T10:50:53;12.2;;;9.81;;
62457;SDS011;48509;52.122;5.250;2024-02-26T10:54:08;11.6;;;9.6;;
62457;SDS011;48509;52.122;5.250;2024-02-26T10:55:52;12.6;;;10.4;;
62457;SDS011;48509;52.122;5.250;2024-02-26T10:57:33;16.4;;;10.6;;
62457;SDS011;48509;52.122;5.250;2024-02-26T10:59:12;14.7;;;10.21;;
62457;SDS011;48509;52.122;5.250;2024-02-26T11:02:28;11.9;;;10.0;;
62457;SDS011;48509;52.122;5.250;2024-02-26T11:04:06;14.6;;;10.5;;
62457;SDS011;48509;52.122;5.250;2024-02-26T11:05:45;13.0;;;10.4;;
62457;SDS011;48509;52.122;5.250;2024-02-26T11:07:23;11.9;;;10.3;;
62457;SDS011;48509;52.122;5.250;2024-02-26T11:10:41;12.4;;;10.0;;
62457;SDS011;48509;52.122;5.250;2024-02-26T11:12:19;13.6;;;11.1;;
62457;SDS011;48509;52.122;5.250;2024-02-26T11:14:02;10.8;;;9.71;;
62457;SDS011;48509;52.122;5.250;2024-02-26T11:17:16;12.1;;;9.9;;
62457;SDS011;48509;52.122;5.250;2024-02-26T11:18:56;11.5;;;9.71;;
62457;SDS011;48509;52.122;5.250;2024-02-26T11:20:33;13.1;;;10.8;;
62457;SDS011;48509;52.122;5.250;2024-02-26T11:22:13;12.7;;;9.9;;
62457;SDS011;48509;52.122;5.250;2024-02-26T11:25:28;12.8;;;10.1;;
62457;SDS011;48509;52.122;5.250;2024-02-26T11:27:05;11.6;;;9.31;;
62457;SDS011;48509;52.122;5.250;2024-02-26T11:28:43;12.9;;;10.21;;
62457;SDS011;48509;52.122;5.250;2024-02-26T11:31:59;12.1;;;9.6;;
62457;SDS011;48509;52.122;5.250;2024-02-26T11:33:36;10.7;;;9.6;;
62457;SDS011;48509;52.122;5.250;2024-02-26T11:35:14;11.3;;;9.5;;
62457;SDS011;48509;52.122;5.250;2024-02-26T11:36:52;12.4;;;10.21;;
62457;SDS011;48509;52.122;5.250;2024-02-26T11:40:10;11.3;;;9.31;;
62457;SDS011;48509;52.122;5.250;2024-02-26T11:41:48;10.4;;;9.31;;
62457;SDS011;48509;52.122;5.250;2024-02-26T11:43:49;12.5;;;9.5;;
62457;SDS011;48509;52.122;5.250;2024-02-26T11:45:47;13.0;;;8.9;;
62457;SDS011;48509;52.122;5.250;2024-02-26T11:47:40;11.3;;;9.81;;
62457;SDS011;48509;52.122;5.250;2024-02-26T11:49:35;10.7;;;9.5;;
62457;SDS011;48509;52.122;5.250;2024-02-26T11:53:18;11.3;;;9.21;;
62457;SDS011;48509;52.122;5.250;2024-02-26T11:54:56;10.4;;;9.31;;
62457;SDS011;48509;52.122;5.250;2024-02-26T11:56:34;11.9;;;9.31;;
62457;SDS011;48509;52.122;5.250;2024-02-26T11:58:10;13.6;;;9.5;;
62457;SDS011;48509;52.122;5.250;2024-02-26T11:59:47;11.3;;;9.31;;
62457;SDS011;48509;52.122;5.250;2024-02-26T12:03:16;11.1;;;8.5;;
62457;SDS011;48509;52.122;5.250;2024-02-26T12:04:53;12.6;;;9.9;;
62457;SDS011;48509;52.122;5.250;2024-02-26T12:06:30;10.7;;;9.31;;
62457;SDS011;48509;52.122;5.250;2024-02-26T12:08:07;11.6;;;10.1;;
62457;SDS011;48509;52.122;5.250;2024-02-26T12:11:20;10.6;;;9.5;;
62457;SDS011;48509;52.122;5.250;2024-02-26T12:12:59;12.5;;;9.5;;
62457;SDS011;48509;52.122;5.250;2024-02-26T12:14:37;11.6;;;9.6;;
62457;SDS011;48509;52.122;5.250;2024-02-26T12:18:15;14.0;;;9.9;;
62457;SDS011;48509;52.122;5.250;2024-02-26T12:19:54;11.5;;;9.1;;
62457;SDS011;48509;52.122;5.250;2024-02-26T12:21:43;11.8;;;9.6;;
62457;SDS011;48509;52.122;5.250;2024-02-26T12:23:20;10.4;;;9.21;;
62457;SDS011;48509;52.122;5.250;2024-02-26T12:24:58;12.9;;;9.4;;
62457;SDS011;48509;52.122;5.250;2024-02-26T12:28:13;10.1;;;8.81;;
62457;SDS011;48509;52.122;5.250;2024-02-26T12:29:50;11.0;;;9.5;;
62457;SDS011;48509;52.122;5.250;2024-02-26T12:31:29;11.0;;;9.4;;
62457;SDS011;48509;52.122;5.250;2024-02-26T12:34:43;10.7;;;8.6;;
62457;SDS011;48509;52.122;5.250;2024-02-26T12:36:21;10.4;;;8.81;;
62457;SDS011;48509;52.122;5.250;2024-02-26T12:37:58;10.7;;;9.6;;
62457;SDS011;48509;52.122;5.250;2024-02-26T12:39:36;11.3;;;8.5;;
62457;SDS011;48509;52.122;5.250;2024-02-26T12:42:52;10.3;;;9.21;;
62457;SDS011;48509;52.122;5.250;2024-02-26T12:44:29;10.9;;;8.9;;